createdAt,value
2017-12-28T00:00:12.051Z,937.74
2017-12-28T00:15:04.543Z,937.63
2017-12-28T00:30:05.319Z,937.69
2017-12-28T00:45:06.276Z,938.06
2017-12-28T01:00:05.443Z,938.11
2017-12-28T01:15:05.896Z,938.54
2017-12-28T01:30:05.041Z,938.84
2017-12-28T01:45:05.747Z,939.02
2017-12-28T02:00:05.201Z,939.42
2017-12-28T02:15:05.320Z,939.69
2017-12-28T02:30:05.443Z,940.25
2017-12-28T02:45:04.639Z,940.63
2017-12-28T03:00:05.128Z,940.95
2017-12-28T03:15:08.469Z,941.05
2017-12-28T03:30:12.410Z,941.38
2017-12-28T03:45:04.447Z,941.38
2017-12-28T04:00:04.763Z,941.86
2017-12-28T04:15:07.922Z,942.15
2017-12-28T04:30:07.699Z,942.71
2017-12-28T04:45:04.732Z,942.77
2017-12-28T05:00:06.544Z,943.38
2017-12-28T05:15:12.740Z,943.33
2017-12-28T05:30:06.079Z,943.73
2017-12-28T05:45:04.992Z,943.7
2017-12-28T06:00:05.181Z,943.92
2017-12-28T06:15:04.762Z,945.04
2017-12-28T06:30:05.647Z,945.33
2017-12-28T06:45:06.394Z,945.79
2017-12-28T07:00:04.979Z,945.6
2017-12-28T07:15:04.822Z,946.08
2017-12-28T07:30:05.247Z,946.65
2017-12-28T07:45:08.067Z,946.94
2017-12-28T08:00:04.513Z,947.37
2017-12-28T08:15:04.586Z,947.72
2017-12-28T08:30:06.444Z,947.74
2017-12-28T08:45:04.914Z,948.12
2017-12-28T09:00:05.355Z,948.17
2017-12-28T09:15:08.807Z,948.41
2017-12-28T09:30:05.710Z,948.92
2017-12-28T09:45:15.783Z,949.11
2017-12-28T10:00:11.549Z,948.49
2017-12-28T10:15:04.936Z,949.19
2017-12-28T10:30:05.756Z,948.52
2017-12-28T10:45:05.194Z,948.28
2017-12-28T11:00:05.266Z,948.33
2017-12-28T11:15:05.288Z,948.09
2017-12-28T11:30:04.480Z,948.71
2017-12-28T11:45:07.612Z,948.36
2017-12-28T12:00:05.606Z,948.6
2017-12-28T12:15:05.119Z,948.89
2017-12-28T12:30:04.885Z,949.13
2017-12-28T12:45:04.937Z,949.27
2017-12-28T13:00:05.091Z,949.48
2017-12-28T13:15:05.112Z,949.69
2017-12-28T13:30:07.867Z,950.1
2017-12-28T13:45:04.756Z,950.58
2017-12-28T14:00:04.640Z,951.43
2017-12-28T14:15:08.025Z,951.41
2017-12-28T14:30:04.645Z,951.92
2017-12-28T14:45:04.770Z,952.16
2017-12-28T15:00:04.901Z,952.77
2017-12-28T15:15:05.587Z,952.96
2017-12-28T15:30:05.133Z,953.07
2017-12-28T15:45:05.257Z,953.55
2017-12-28T16:00:11.850Z,953.57
2017-12-28T16:15:04.439Z,954.06
2017-12-28T16:30:04.831Z,953.47
2017-12-28T16:45:04.940Z,953.49
2017-12-28T17:00:05.288Z,953.68
2017-12-28T17:15:05.699Z,953.82
2017-12-28T17:30:07.958Z,954.38
2017-12-28T17:45:04.426Z,954.97
2017-12-28T18:00:04.518Z,955.74
2017-12-28T18:15:04.891Z,956.01
2017-12-28T18:30:04.770Z,956.06
2017-12-28T18:45:05.200Z,955.85
2017-12-28T19:00:05.794Z,956.2
2017-12-28T19:15:11.446Z,956.41
2017-12-28T19:30:06.158Z,956.89
2017-12-28T19:45:04.619Z,957.43
2017-12-28T20:00:05.293Z,957.27
2017-12-28T20:15:05.020Z,957.27
2017-12-28T20:30:05.122Z,957.43
2017-12-28T20:45:05.280Z,958.04
2017-12-28T21:00:04.760Z,958.36
2017-12-28T21:15:04.983Z,958.69
2017-12-28T21:30:08.093Z,958.95
2017-12-28T21:45:05.029Z,958.9
2017-12-28T22:00:05.092Z,959.09
2017-12-28T22:15:04.842Z,959.09
2017-12-28T22:30:05.285Z,959.27
2017-12-28T22:45:05.411Z,959.35
2017-12-28T23:00:05.554Z,959.35
2017-12-28T23:15:04.976Z,959.35
2017-12-28T23:30:08.194Z,959.46
2017-12-28T23:45:05.116Z,959.73
